createdAt,value
2022-08-19T00:00:12.011Z,97404.67
2022-08-19T00:03:00.099Z,97389.05
2022-08-19T00:05:28.503Z,97397.52
2022-08-19T00:07:56.503Z,97398.86
2022-08-19T00:10:25.555Z,97395.73
2022-08-19T00:12:53.806Z,97393.86
2022-08-19T00:15:23.055Z,97391.00
2022-08-19T00:17:52.114Z,97392.60
2022-08-19T00:20:22.263Z,97404.09
2022-08-19T00:22:51.163Z,97420.11
2022-08-19T00:25:30.636Z,97418.98
2022-08-19T00:28:00.126Z,97414.04
2022-08-19T00:30:31.323Z,97414.38
2022-08-19T00:33:00.303Z,97408.36
2022-08-19T00:35:29.045Z,97406.92
2022-08-19T00:37:58.271Z,97411.68
2022-08-19T00:40:26.847Z,97419.77
2022-08-19T00:42:54.995Z,97418.82
2022-08-19T00:45:27.072Z,97422.05
2022-08-19T00:47:55.141Z,97416.21
2022-08-19T00:50:25.478Z,97412.71
2022-08-19T00:52:54.391Z,97412.16
2022-08-19T00:55:26.343Z,97410.74
2022-08-19T00:57:57.408Z,97405.20
2022-08-19T01:00:27.955Z,97411.73
2022-08-19T01:02:56.058Z,97418.17
2022-08-19T01:05:30.266Z,97424.00
2022-08-19T01:08:01.762Z,97417.79
2022-08-19T01:10:36.903Z,97413.77
2022-08-19T01:13:06.059Z,97415.14
2022-08-19T01:15:41.194Z,97415.27
2022-08-19T01:18:13.283Z,97419.26
2022-08-19T01:20:42.517Z,97421.95
2022-08-19T01:23:10.731Z,97410.60
2022-08-19T01:25:53.109Z,97410.48
2022-08-19T01:28:34.224Z,97415.79
2022-08-19T01:31:26.367Z,97434.17
2022-08-19T01:34:00.814Z,97432.18
2022-08-19T01:36:38.327Z,97426.82
2022-08-19T01:39:10.599Z,97434.29
2022-08-19T01:41:38.876Z,97436.32
2022-08-19T01:44:17.433Z,97424.46
2022-08-19T01:46:49.492Z,97417.34
2022-08-19T01:49:20.286Z,97426.61
2022-08-19T01:51:50.628Z,97425.36
2022-08-19T01:54:22.895Z,97417.88
2022-08-19T01:57:02.076Z,97428.02
2022-08-19T01:59:32.148Z,97440.27
2022-08-19T02:02:00.166Z,97436.98
2022-08-19T02:04:28.280Z,97430.88
2022-08-19T02:06:56.307Z,97432.63
2022-08-19T02:09:24.395Z,97442.36
2022-08-19T02:11:52.843Z,97438.48
2022-08-19T02:14:20.842Z,97427.57
2022-08-19T02:16:49.371Z,97431.74
2022-08-19T02:19:18.046Z,97441.73
2022-08-19T02:21:46.246Z,97444.77
2022-08-19T02:24:14.847Z,97445.88
2022-08-19T02:26:42.849Z,97440.35
2022-08-19T02:29:11.922Z,97444.15
2022-08-19T02:31:39.945Z,97445.10
2022-08-19T02:34:07.973Z,97437.52
2022-08-19T02:36:36.254Z,97437.86
2022-08-19T02:39:11.429Z,97450.02
2022-08-19T02:41:40.312Z,97450.11
2022-08-19T02:44:29.421Z,97443.89
2022-08-19T02:46:56.574Z,97443.87
2022-08-19T02:49:24.674Z,97446.02
2022-08-19T02:51:52.739Z,97446.27
2022-08-19T02:54:20.839Z,97444.34
2022-08-19T02:56:48.896Z,97443.86
2022-08-19T02:59:16.889Z,97448.20
2022-08-19T03:01:44.953Z,97452.27
2022-08-19T03:04:17.219Z,97455.39
2022-08-19T03:06:47.381Z,97455.77
2022-08-19T03:09:16.505Z,97452.98
2022-08-19T03:11:44.775Z,97451.99
2022-08-19T03:14:14.109Z,97453.81
2022-08-19T03:16:48.878Z,97460.38
2022-08-19T03:19:19.559Z,97457.62
2022-08-19T03:21:48.551Z,97463.23
2022-08-19T03:24:18.370Z,97465.42
2022-08-19T03:26:52.474Z,97468.24
2022-08-19T03:29:30.841Z,97464.50
2022-08-19T03:32:02.143Z,97476.77
2022-08-19T03:34:35.387Z,97475.34
2022-08-19T03:37:10.434Z,97464.09
2022-08-19T03:39:39.098Z,97456.66
2022-08-19T03:42:32.651Z,97456.59
2022-08-19T03:44:55.468Z,97464.45
2022-08-19T03:47:23.583Z,97470.05
2022-08-19T03:49:51.641Z,97474.20
2022-08-19T03:52:19.668Z,97485.40
2022-08-19T03:54:47.688Z,97486.39
2022-08-19T03:57:15.692Z,97487.48
2022-08-19T03:59:44.584Z,97485.14
2022-08-19T04:02:14.003Z,97481.16
2022-08-19T04:04:44.913Z,97481.16
2022-08-19T04:07:17.321Z,97483.59
2022-08-19T04:09:45.656Z,97483.04
2022-08-19T04:12:13.717Z,97480.27
2022-08-19T04:14:42.288Z,97489.73
2022-08-19T04:17:10.312Z,97494.55
2022-08-19T04:19:40.705Z,97487.04
2022-08-19T04:22:08.904Z,97479.27
2022-08-19T04:24:37.014Z,97476.02
2022-08-19T04:27:07.220Z,97499.71
2022-08-19T04:29:35.482Z,97511.38
2022-08-19T04:32:09.430Z,97499.10
2022-08-19T04:35:01.244Z,97497.58
2022-08-19T04:37:35.421Z,97487.05
2022-08-19T04:40:27.875Z,97487.55
2022-08-19T04:42:56.138Z,97477.29
2022-08-19T04:45:27.619Z,97466.08
2022-08-19T04:47:58.161Z,97473.07
2022-08-19T04:50:45.937Z,97475.05
2022-08-19T04:53:14.008Z,97467.27
2022-08-19T04:55:43.517Z,97464.95
2022-08-19T04:58:11.804Z,97465.25
2022-08-19T05:00:41.237Z,97488.93
2022-08-19T05:03:09.596Z,97480.23
2022-08-19T05:05:44.613Z,97449.91
2022-08-19T05:08:15.312Z,97449.59
2022-08-19T05:10:43.849Z,97471.77
2022-08-19T05:13:12.027Z,97449.05
2022-08-19T05:15:40.098Z,97440.39
2022-08-19T05:18:26.810Z,97432.98
2022-08-19T05:21:13.260Z,97456.99
2022-08-19T05:23:42.192Z,97471.73
2022-08-19T05:26:12.075Z,97481.06
2022-08-19T05:28:40.188Z,97480.43
2022-08-19T05:31:08.678Z,97486.90
2022-08-19T05:33:37.012Z,97454.51
2022-08-19T05:36:09.947Z,97437.09
2022-08-19T05:38:39.470Z,97423.58
2022-08-19T05:41:12.263Z,97429.66
2022-08-19T05:43:41.397Z,97417.22
2022-08-19T05:46:17.029Z,97411.10
2022-08-19T05:48:45.606Z,97430.71
2022-08-19T05:51:14.305Z,97432.38
2022-08-19T05:53:46.778Z,97458.02
2022-08-19T05:56:19.535Z,97464.52
2022-08-19T05:58:47.636Z,97447.96
2022-08-19T06:01:18.388Z,97419.38
2022-08-19T06:03:47.179Z,97413.76
2022-08-19T06:06:17.384Z,97431.95
2022-08-19T06:08:51.742Z,97409.20
2022-08-19T06:11:26.558Z,97401.31
2022-08-19T06:14:01.506Z,97399.49
2022-08-19T06:16:31.353Z,97393.55
2022-08-19T06:19:02.043Z,97396.66
2022-08-19T06:21:31.444Z,97389.21
2022-08-19T06:24:00.442Z,97389.65
2022-08-19T06:26:30.516Z,97386.53
2022-08-19T06:28:58.852Z,97382.64
2022-08-19T06:31:29.468Z,97382.73
2022-08-19T06:33:57.511Z,97383.71
2022-08-19T06:36:34.841Z,97387.45
2022-08-19T06:39:06.980Z,97390.52
2022-08-19T06:41:48.806Z,97394.63
2022-08-19T06:44:21.751Z,97403.33
2022-08-19T06:46:53.547Z,97410.09
2022-08-19T06:49:24.211Z,97411.38
2022-08-19T06:51:52.669Z,97400.67
2022-08-19T06:54:21.960Z,97397.55
2022-08-19T06:56:51.689Z,97400.50
2022-08-19T06:59:23.851Z,97398.33
2022-08-19T07:01:55.332Z,97398.17
2022-08-19T07:04:26.626Z,97396.73
2022-08-19T07:07:00.967Z,97394.40
2022-08-19T07:09:58.555Z,97394.56
2022-08-19T07:12:36.129Z,97397.55
2022-08-19T07:15:09.616Z,97397.69
2022-08-19T07:17:41.918Z,97398.52
2022-08-19T07:20:11.793Z,97407.97
2022-08-19T07:22:41.365Z,97401.09
2022-08-19T07:25:11.038Z,97406.09
2022-08-19T07:27:46.343Z,97407.09
2022-08-19T07:30:14.918Z,97406.53
2022-08-19T07:32:43.546Z,97402.62
2022-08-19T07:35:12.816Z,97399.20
2022-08-19T07:37:45.254Z,97398.17
2022-08-19T07:40:14.950Z,97398.80
2022-08-19T07:42:45.275Z,97404.67
2022-08-19T07:45:13.736Z,97406.06
2022-08-19T07:47:49.242Z,97406.36
2022-08-19T07:50:21.325Z,97398.27
2022-08-19T07:52:50.908Z,97395.55
2022-08-19T07:55:42.453Z,97388.95
2022-08-19T07:58:16.077Z,97384.55
2022-08-19T08:00:48.379Z,97379.20
2022-08-19T08:03:19.604Z,97376.17
2022-08-19T08:06:08.859Z,97369.70
2022-08-19T08:08:48.154Z,97361.71
2022-08-19T08:11:21.325Z,97363.27
2022-08-19T08:14:00.868Z,97363.29
2022-08-19T08:16:46.747Z,97362.30
2022-08-19T08:19:20.639Z,97360.43
2022-08-19T08:21:56.984Z,97363.09
2022-08-19T08:24:28.614Z,97356.58
2022-08-19T08:26:59.723Z,97358.79
2022-08-19T08:29:34.574Z,97356.57
2022-08-19T08:32:14.129Z,97354.40
2022-08-19T08:34:43.779Z,97351.82
2022-08-19T08:37:11.955Z,97351.63
2022-08-19T08:39:43.274Z,97352.27
2022-08-19T08:42:27.910Z,97353.42
2022-08-19T08:44:59.559Z,97352.08
2022-08-19T08:47:33.968Z,97352.83
2022-08-19T08:50:22.406Z,97348.77
2022-08-19T08:52:58.015Z,97343.12
2022-08-19T08:55:36.929Z,97337.67
2022-08-19T08:58:22.071Z,97333.36
2022-08-19T09:00:51.068Z,97332.88
2022-08-19T09:03:23.482Z,97326.81
2022-08-19T09:06:44.701Z,97318.30
2022-08-19T09:09:45.471Z,97315.90
2022-08-19T09:12:26.891Z,97316.08
2022-08-19T09:15:01.559Z,97311.33
2022-08-19T09:17:39.697Z,97308.65
2022-08-19T09:20:20.723Z,97311.54
2022-08-19T09:22:50.392Z,97307.00
2022-08-19T09:25:26.993Z,97301.20
2022-08-19T09:28:02.277Z,97304.46
2022-08-19T09:30:40.637Z,97305.30
2022-08-19T09:33:10.445Z,97311.50
2022-08-19T09:35:50.166Z,97307.41
2022-08-19T09:38:22.650Z,97306.53
2022-08-19T09:40:51.000Z,97306.39
2022-08-19T09:43:32.566Z,97305.95
2022-08-19T09:46:07.660Z,97303.42
2022-08-19T09:48:42.142Z,97306.64
2022-08-19T09:51:17.256Z,97305.27
2022-08-19T09:53:46.779Z,97299.33
2022-08-19T09:56:15.188Z,97302.33
2022-08-19T09:58:43.837Z,97299.98
2022-08-19T10:01:18.322Z,97298.66
2022-08-19T10:03:53.746Z,97295.70
2022-08-19T10:06:46.755Z,97299.11
2022-08-19T10:09:18.415Z,97297.33
2022-08-19T10:12:06.174Z,97286.94
2022-08-19T10:14:36.633Z,97282.65
2022-08-19T10:17:17.673Z,97278.39
2022-08-19T10:19:55.187Z,97278.95
2022-08-19T10:22:25.691Z,97278.04
2022-08-19T10:24:56.910Z,97274.41
2022-08-19T10:27:26.505Z,97274.41
2022-08-19T10:29:54.971Z,97270.95
2022-08-19T10:32:33.873Z,97264.84
2022-08-19T10:35:09.137Z,97263.20
2022-08-19T10:37:47.800Z,97258.76
2022-08-19T10:40:29.556Z,97256.38
2022-08-19T10:42:57.879Z,97255.45
2022-08-19T10:45:29.929Z,97255.95
2022-08-19T10:48:07.202Z,97261.09
2022-08-19T10:50:58.590Z,97257.39
2022-08-19T10:53:27.281Z,97256.83
2022-08-19T10:56:17.599Z,97259.29
2022-08-19T10:58:45.956Z,97259.50
2022-08-19T11:01:17.508Z,97256.58
2022-08-19T11:03:46.482Z,97253.37
2022-08-19T11:06:15.096Z,97252.45
2022-08-19T11:08:46.486Z,97248.96
2022-08-19T11:11:15.819Z,97250.63
2022-08-19T11:13:47.033Z,97246.89
2022-08-19T11:16:18.636Z,97245.98
2022-08-19T11:18:52.282Z,97245.61
2022-08-19T11:21:26.921Z,97249.20
2022-08-19T11:23:58.003Z,97247.15
2022-08-19T11:26:26.860Z,97254.17
2022-08-19T11:28:56.726Z,97253.77
2022-08-19T11:31:32.300Z,97252.77
2022-08-19T11:34:04.345Z,97246.66
2022-08-19T11:36:36.232Z,97247.70
2022-08-19T11:39:07.760Z,97244.72
2022-08-19T11:41:36.485Z,97238.98
2022-08-19T11:44:05.806Z,97241.42
2022-08-19T11:46:35.904Z,97238.61
2022-08-19T11:49:13.880Z,97238.00
2022-08-19T11:51:46.984Z,97233.80
2022-08-19T11:54:17.850Z,97235.73
2022-08-19T11:56:48.538Z,97228.42
2022-08-19T11:59:17.256Z,97232.45
2022-08-19T12:01:45.601Z,97231.71
2022-08-19T12:04:14.442Z,97226.14
2022-08-19T12:06:42.815Z,97222.36
2022-08-19T12:09:12.455Z,97217.04
2022-08-19T12:11:42.732Z,97215.85
2022-08-19T12:14:15.285Z,97212.59
2022-08-19T12:16:49.235Z,97210.98
2022-08-19T12:19:22.233Z,97205.80
2022-08-19T12:21:52.024Z,97202.77
2022-08-19T12:24:24.525Z,97202.86
2022-08-19T12:26:55.034Z,97200.86
2022-08-19T12:29:30.712Z,97201.30
2022-08-19T12:32:05.775Z,97200.27
2022-08-19T12:34:40.620Z,97198.35
2022-08-19T12:37:09.149Z,97190.02
2022-08-19T12:39:41.513Z,97186.95
2022-08-19T12:42:11.867Z,97185.28
2022-08-19T12:44:42.708Z,97182.23
2022-08-19T12:47:14.464Z,97179.48
2022-08-19T12:49:53.387Z,97175.63
2022-08-19T12:52:28.352Z,97171.05
2022-08-19T12:54:58.494Z,97169.41
2022-08-19T12:57:32.338Z,97165.52
2022-08-19T13:00:05.789Z,97165.95
2022-08-19T13:02:38.961Z,97164.98
2022-08-19T13:05:12.900Z,97164.64
2022-08-19T13:07:42.056Z,97163.79
2022-08-19T13:10:21.411Z,97162.94
2022-08-19T13:12:52.427Z,97155.61
2022-08-19T13:15:24.152Z,97151.45
2022-08-19T13:17:54.925Z,97148.90
2022-08-19T13:20:24.059Z,97149.61
2022-08-19T13:22:52.763Z,97149.16
2022-08-19T13:25:21.982Z,97145.23
2022-08-19T13:27:51.873Z,97146.30
2022-08-19T13:30:39.491Z,97142.11
2022-08-19T13:33:11.962Z,97140.81
2022-08-19T13:35:43.677Z,97132.69
2022-08-19T13:38:12.578Z,97127.27
2022-08-19T13:40:51.219Z,97127.45
2022-08-19T13:43:33.979Z,97128.18
2022-08-19T13:46:14.444Z,97127.27
2022-08-19T13:48:45.898Z,97127.64
2022-08-19T13:51:14.376Z,97128.54
2022-08-19T13:53:48.134Z,97125.56
2022-08-19T13:56:26.310Z,97124.42
2022-08-19T13:58:54.819Z,97128.16
2022-08-19T14:01:28.505Z,97125.90
2022-08-19T14:03:56.725Z,97124.60
2022-08-19T14:06:26.424Z,97126.53
2022-08-19T14:08:54.949Z,97123.99
2022-08-19T14:11:24.396Z,97120.79
2022-08-19T14:13:52.727Z,97123.21
2022-08-19T14:16:22.751Z,97119.76
2022-08-19T14:18:53.372Z,97117.65
2022-08-19T14:21:23.670Z,97111.70
2022-08-19T14:23:52.913Z,97109.46
2022-08-19T14:26:23.454Z,97114.98
2022-08-19T14:28:53.861Z,97111.98
2022-08-19T14:31:28.975Z,97115.84
2022-08-19T14:33:59.491Z,97112.55
2022-08-19T14:36:29.272Z,97112.27
2022-08-19T14:38:58.898Z,97113.93
2022-08-19T14:41:27.513Z,97108.36
2022-08-19T14:43:57.285Z,97110.48
2022-08-19T14:46:28.264Z,97115.23
2022-08-19T14:48:59.980Z,97116.14
2022-08-19T14:51:28.760Z,97115.83
2022-08-19T14:53:57.227Z,97112.95
2022-08-19T14:56:28.825Z,97111.64
2022-08-19T14:59:00.442Z,97110.92
2022-08-19T15:01:29.331Z,97115.14
2022-08-19T15:03:57.699Z,97112.83
2022-08-19T15:06:30.203Z,97111.20
2022-08-19T15:09:04.334Z,97105.23
2022-08-19T15:11:34.073Z,97106.71
2022-08-19T15:14:03.336Z,97103.56
2022-08-19T15:16:31.426Z,97103.46
2022-08-19T15:19:01.035Z,97101.00
2022-08-19T15:21:30.668Z,97102.14
2022-08-19T15:23:59.776Z,97099.98
2022-08-19T15:26:32.491Z,97094.60
2022-08-19T15:29:02.380Z,97091.87
2022-08-19T15:31:38.244Z,97091.86
2022-08-19T15:34:08.238Z,97093.36
2022-08-19T15:36:38.897Z,97095.41
2022-08-19T15:39:07.527Z,97096.30
2022-08-19T15:41:37.152Z,97100.05
2022-08-19T15:44:12.358Z,97100.91
2022-08-19T15:46:44.262Z,97103.63
2022-08-19T15:49:15.706Z,97102.38
2022-08-19T15:51:46.903Z,97103.56
2022-08-19T15:54:21.554Z,97101.66
2022-08-19T15:57:10.028Z,97100.48
2022-08-19T15:59:58.041Z,97099.38
2022-08-19T16:02:53.610Z,97096.48
2022-08-19T16:05:44.590Z,97097.04
2022-08-19T16:08:13.256Z,97099.94
2022-08-19T16:10:43.093Z,97101.96
2022-08-19T16:13:11.296Z,97101.98
2022-08-19T16:15:42.191Z,97101.45
2022-08-19T16:18:10.511Z,97098.31
2022-08-19T16:20:38.915Z,97096.55
2022-08-19T16:23:09.166Z,97094.29
2022-08-19T16:25:39.492Z,97090.11
2022-08-19T16:28:10.048Z,97087.71
2022-08-19T16:30:41.032Z,97087.32
2022-08-19T16:33:10.786Z,97086.55
2022-08-19T16:35:39.128Z,97087.64
2022-08-19T16:38:07.304Z,97087.23
2022-08-19T16:40:37.942Z,97085.52
2022-08-19T16:43:05.979Z,97087.69
2022-08-19T16:45:34.120Z,97087.71
2022-08-19T16:48:04.237Z,97090.14
2022-08-19T16:50:48.638Z,97091.17
2022-08-19T16:53:21.313Z,97090.95
2022-08-19T16:55:51.108Z,97089.38
2022-08-19T16:58:20.661Z,97089.13
2022-08-19T17:01:03.291Z,97085.61
2022-08-19T17:03:36.959Z,97083.27
2022-08-19T17:06:18.930Z,97083.08
2022-08-19T17:08:54.362Z,97083.61
2022-08-19T17:11:24.556Z,97086.83
2022-08-19T17:13:54.690Z,97090.95
2022-08-19T17:16:25.812Z,97094.64
2022-08-19T17:18:58.799Z,97095.68
2022-08-19T17:21:32.348Z,97095.96
2022-08-19T17:24:02.531Z,97099.41
2022-08-19T17:26:31.454Z,97103.33
2022-08-19T17:29:00.536Z,97110.42
2022-08-19T17:31:30.819Z,97112.13
2022-08-19T17:34:00.360Z,97114.80
2022-08-19T17:36:31.316Z,97111.55
2022-08-19T17:39:05.030Z,97108.71
2022-08-19T17:41:34.444Z,97111.31
2022-08-19T17:44:03.671Z,97112.69
2022-08-19T17:46:32.750Z,97113.02
2022-08-19T17:49:00.977Z,97120.90
2022-08-19T17:51:35.127Z,97125.45
2022-08-19T17:54:06.635Z,97128.13
2022-08-19T17:56:34.778Z,97127.45
2022-08-19T17:59:02.890Z,97128.90
2022-08-19T18:01:52.521Z,97129.26
2022-08-19T18:04:25.285Z,97127.67
2022-08-19T18:06:55.615Z,97128.27
2022-08-19T18:09:41.209Z,97127.25
2022-08-19T18:12:13.566Z,97128.01
2022-08-19T18:14:42.311Z,97129.90
2022-08-19T18:17:13.347Z,97129.44
2022-08-19T18:19:44.212Z,97128.52
2022-08-19T18:22:30.180Z,97134.35
2022-08-19T18:24:59.857Z,97137.22
2022-08-19T18:27:29.399Z,97138.92
2022-08-19T18:29:59.452Z,97142.86
2022-08-19T18:32:34.308Z,97144.86
2022-08-19T18:35:18.624Z,97147.27
2022-08-19T18:37:46.871Z,97147.80
2022-08-19T18:40:39.132Z,97145.14
2022-08-19T18:43:27.390Z,97144.99
2022-08-19T18:46:27.841Z,97149.81
2022-08-19T18:49:05.227Z,97152.08
2022-08-19T18:51:34.597Z,97152.73
2022-08-19T18:54:03.280Z,97154.92
2022-08-19T18:56:37.517Z,97155.58
2022-08-19T18:59:09.774Z,97161.48
2022-08-19T19:01:40.803Z,97161.31
2022-08-19T19:04:13.915Z,97162.38
2022-08-19T19:06:43.473Z,97168.64
2022-08-19T19:09:15.557Z,97167.25
2022-08-19T19:11:48.428Z,97169.06
2022-08-19T19:14:45.546Z,97168.89
2022-08-19T19:17:14.374Z,97164.77
2022-08-19T19:19:44.077Z,97167.83
2022-08-19T19:22:17.287Z,97173.48
2022-08-19T19:24:45.545Z,97173.61
2022-08-19T19:27:15.565Z,97172.14
2022-08-19T19:29:47.401Z,97178.13
2022-08-19T19:32:26.942Z,97185.40
2022-08-19T19:34:55.447Z,97186.38
2022-08-19T19:37:23.637Z,97185.86
2022-08-19T19:39:52.698Z,97188.27
2022-08-19T19:42:23.975Z,97190.98
2022-08-19T19:44:56.247Z,97191.70
2022-08-19T19:47:29.126Z,97195.20
2022-08-19T19:50:13.650Z,97199.20
2022-08-19T19:52:46.378Z,97204.30
2022-08-19T19:55:18.607Z,97202.04
2022-08-19T19:57:49.236Z,97204.63
2022-08-19T20:00:19.193Z,97206.50
2022-08-19T20:02:50.413Z,97210.59
2022-08-19T20:05:23.598Z,97211.23
2022-08-19T20:08:12.197Z,97213.20
2022-08-19T20:10:43.065Z,97217.52
2022-08-19T20:13:15.677Z,97219.02
2022-08-19T20:15:44.230Z,97219.23
2022-08-19T20:18:16.378Z,97223.27
2022-08-19T20:20:47.126Z,97217.41
2022-08-19T20:23:15.325Z,97220.15
2022-08-19T20:25:43.643Z,97223.21
2022-08-19T20:28:13.179Z,97224.13
2022-08-19T20:30:44.939Z,97227.80
2022-08-19T20:33:14.954Z,97227.07
2022-08-19T20:35:43.686Z,97229.58
2022-08-19T20:38:12.524Z,97230.55
2022-08-19T20:40:41.441Z,97229.58
2022-08-19T20:43:11.952Z,97232.12
2022-08-19T20:45:40.847Z,97229.76
2022-08-19T20:48:10.616Z,97227.23
2022-08-19T20:50:39.257Z,97235.40
2022-08-19T20:53:16.255Z,97230.06
2022-08-19T20:55:46.313Z,97230.39
2022-08-19T20:58:14.845Z,97228.39
2022-08-19T21:00:46.264Z,97229.52
2022-08-19T21:03:21.331Z,97232.17
2022-08-19T21:05:49.600Z,97236.24
2022-08-19T21:08:21.010Z,97241.14
2022-08-19T21:10:51.056Z,97241.86
2022-08-19T21:13:20.597Z,97241.70
2022-08-19T21:15:50.674Z,97239.94
2022-08-19T21:18:20.991Z,97238.36
2022-08-19T21:20:50.491Z,97236.64
2022-08-19T21:23:28.581Z,97239.64
2022-08-19T21:25:59.723Z,97241.09
2022-08-19T21:28:29.864Z,97245.74
2022-08-19T21:31:06.863Z,97242.48
2022-08-19T21:33:35.059Z,97245.30
2022-08-19T21:36:04.485Z,97238.81
2022-08-19T21:38:33.135Z,97242.09
2022-08-19T21:41:05.734Z,97241.19
2022-08-19T21:43:37.768Z,97239.91
2022-08-19T21:46:06.462Z,97241.08
2022-08-19T21:48:34.849Z,97245.58
2022-08-19T21:51:03.221Z,97246.61
2022-08-19T21:53:34.525Z,97245.98
2022-08-19T21:56:06.429Z,97243.95
2022-08-19T21:58:39.030Z,97244.80
2022-08-19T22:01:08.127Z,97245.10
2022-08-19T22:03:38.827Z,97250.52
2022-08-19T22:06:08.531Z,97253.45
2022-08-19T22:08:36.916Z,97248.55
2022-08-19T22:11:05.227Z,97250.40
2022-08-19T22:13:40.507Z,97245.54
2022-08-19T22:16:12.636Z,97239.64
2022-08-19T22:18:40.852Z,97240.57
2022-08-19T22:21:11.886Z,97235.21
2022-08-19T22:23:42.496Z,97235.31
2022-08-19T22:26:12.211Z,97232.04
2022-08-19T22:28:44.276Z,97230.38
2022-08-19T22:31:12.934Z,97228.83
2022-08-19T22:33:41.684Z,97229.80
2022-08-19T22:36:09.784Z,97238.67
2022-08-19T22:38:38.513Z,97242.10
2022-08-19T22:41:08.044Z,97246.62
2022-08-19T22:43:37.699Z,97240.19
2022-08-19T22:46:15.047Z,97239.13
2022-08-19T22:48:47.786Z,97236.34
2022-08-19T22:51:38.281Z,97226.92
2022-08-19T22:54:06.322Z,97227.52
2022-08-19T22:56:35.762Z,97226.67
2022-08-19T22:59:04.234Z,97222.81
2022-08-19T23:01:32.334Z,97218.96
2022-08-19T23:04:03.728Z,97218.37
2022-08-19T23:06:35.045Z,97218.86
2022-08-19T23:09:07.280Z,97215.81
2022-08-19T23:11:41.895Z,97208.98
2022-08-19T23:14:11.462Z,97209.46
2022-08-19T23:16:41.709Z,97216.98
2022-08-19T23:19:10.850Z,97215.25
2022-08-19T23:21:43.744Z,97214.81
2022-08-19T23:24:12.445Z,97213.15
2022-08-19T23:27:01.752Z,97209.81
2022-08-19T23:29:48.914Z,97204.83
2022-08-19T23:32:19.804Z,97206.98
2022-08-19T23:34:48.342Z,97206.92
2022-08-19T23:37:16.430Z,97211.39
2022-08-19T23:39:45.430Z,97213.56
2022-08-19T23:42:15.079Z,97219.52
2022-08-19T23:44:51.285Z,97223.41
2022-08-19T23:47:23.630Z,97221.55
2022-08-19T23:49:51.973Z,97222.16
2022-08-19T23:52:20.195Z,97221.04
2022-08-19T23:54:48.243Z,97223.39
2022-08-19T23:57:16.976Z,97221.42
2022-08-19T23:59:45.753Z,97217.73
